Wellersburg, Pennsylvania
Current Conditions -  °F | °C
As of 12:38 AM on Saturday 01 Nov 2014 (Local Time) from KCBE Reporting Station
Overcast Overcast  
Wind Chill: 45°   Ceiling: 1200
Heat Index: 45°   Visibility: 7mi
Dew Point: 43°   Wind: 3mph
Humidity: 93%   Direction: 350°N
Pressure: 29.91"   Gusts: NA
Location:  39.73°N, 78.85°W
Report Text: KCBE 010438Z AUTO 35003KT 7SM OVC012 07/06 A2991 RMK AO1
Loading
Personal Weather Stations






























Interactive Weather Map
Tropical Storm Tracking
New forecast layout! Learn more

10-Day Weather Forecast

Advertisements
Track Severe Weather on mobile